Time;durP1;ratioP1;P1;durP2;ratioP2;P2;SDS_P1;SDS_P2;PMS_P1;PMS_P2;Temp;Humidity;BMP_temperature;BMP_pressure;BME280_temperature;BME280_humidity;BME280_pressure;Samples;Min_cycle;Max_cycle;Signal;HPM_P1;HPM_P2
2023/01/23 00:02:17;;;;;;;8.83;7.70;;;;;;;9.34;100.00;8387.22;5072389;28;20189;-64
2023/01/23 00:04:44;;;;;;;9.30;8.20;;;;;;;9.22;100.00;7426.28;5072174;28;20671;-64
2023/01/23 00:07:11;;;;;;;11.27;7.80;;;;;;;9.00;100.00;8061.41;5072568;28;20621;-64
2023/01/23 00:09:40;;;;;;;7.17;6.63;;;;;;;9.17;100.00;8703.75;5054104;28;20185;-63
2023/01/23 00:12:07;;;;;;;8.70;7.17;;;;;;;9.13;100.00;10301.59;5072118;28;20552;-63
2023/01/23 00:14:33;;;;;;;7.73;7.03;;;;;;;9.23;100.00;10623.41;5072025;28;20188;-64
2023/01/23 00:17:00;;;;;;;8.10;7.30;;;;;;;9.07;100.00;10939.84;5072278;28;20549;-64
2023/01/23 00:19:27;;;;;;;10.10;8.03;;;;;;;9.25;100.00;11263.78;5072241;28;20628;-64
2023/01/23 00:21:54;;;;;;;9.13;7.90;;;;;;;9.32;100.00;12225.50;5071961;28;20229;-64
2023/01/23 00:24:21;;;;;;;7.87;7.07;;;;;;;9.38;100.00;16070.25;5071775;28;20188;-64
2023/01/23 00:26:50;;;;;;;8.87;6.77;;;;;;;9.27;100.00;17989.97;5071704;28;20674;-65
2023/01/23 00:29:16;;;;;;;15.37;7.70;;;;;;;9.28;100.00;16708.16;5072006;28;20564;-64
2023/01/23 00:31:44;;;;;;;8.23;7.63;;;;;;;9.13;100.00;17664.59;5071793;28;20578;-64
2023/01/23 00:34:14;;;;;;;8.67;6.73;;;;;;;9.08;100.00;18624.63;5071705;28;20291;-64
2023/01/23 00:36:43;;;;;;;9.30;7.10;;;;;;;9.09;100.00;18304.25;5071571;28;20272;-63
2023/01/23 00:39:15;;;;;;;10.33;7.40;;;;;;;9.18;100.00;18307.41;5071889;28;20560;-64
2023/01/23 00:41:42;;;;;;;15.43;8.77;;;;;;;9.08;100.00;19586.25;5071746;28;20628;-64
2023/01/23 00:44:10;;;;;;;7.43;6.77;;;;;;;9.16;100.00;22155.78;5071438;28;20181;-63
2023/01/23 00:46:37;;;;;;;9.67;7.43;;;;;;;9.08;100.00;22794.34;5071698;28;20705;-65
2023/01/23 00:49:04;;;;;;;8.17;7.43;;;;;;;9.27;100.00;23765.72;5071640;28;20556;-64
2023/01/23 00:51:31;;;;;;;10.07;7.87;;;;;;;9.08;100.00;23115.31;5071327;28;20195;-64
2023/01/23 00:53:58;;;;;;;8.93;7.30;;;;;;;9.01;100.00;23433.47;5071603;28;20189;-65
2023/01/23 00:56:25;;;;;;;8.43;7.80;;;;;;;9.23;100.00;23442.84;5071178;28;20185;-64
2023/01/23 00:58:52;;;;;;;7.83;7.20;;;;;;;9.11;100.00;28899.78;5071420;28;20200;-64
2023/01/23 01:01:21;;;;;;;8.30;7.50;;;;;;;9.21;100.00;29226.66;5071250;28;20192;-65
2023/01/23 01:03:48;;;;;;;8.33;7.47;;;;;;;9.18;100.00;33086.91;5071476;28;20254;-63
2023/01/23 01:06:15;;;;;;;7.50;6.80;;;;;;;8.92;100.00;36291.69;5071128;28;20215;-63
2023/01/23 01:08:42;;;;;;;8.10;7.20;;;;;;;8.90;100.00;35646.13;5071177;28;20197;-64
2023/01/23 01:11:09;;;;;;;8.30;7.27;;;;;;;9.01;100.00;35330.97;5071323;28;20235;-64
2023/01/23 01:13:36;;;;;;;8.30;7.53;;;;;;;8.95;100.00;35005.13;5053780;28;20187;-64
2023/01/23 01:16:04;;;;;;;14.27;7.13;;;;;;;8.67;100.00;33378.97;5075415;28;20191;-63
2023/01/23 01:18:32;;;;;;;7.73;7.00;;;;;;;8.87;100.00;31781.38;5075552;28;20192;-64
2023/01/23 01:20:59;;;;;;;7.07;6.47;;;;;;;8.87;100.00;35644.22;5075255;28;20280;-64
2023/01/23 01:23:26;;;;;;;10.43;6.40;;;;;;;8.86;100.00;35965.69;5075408;28;20208;-64
2023/01/23 01:25:53;;;;;;;7.20;6.67;;;;;;;8.85;100.00;39187.69;5075042;28;20208;-64
2023/01/23 01:28:20;;;;;;;7.87;7.13;;;;;;;8.95;100.00;43066.94;5075246;28;20177;-64
2023/01/23 01:30:47;;;;;;;7.33;6.73;;;;;;;8.85;100.00;42736.19;5075027;28;20220;-63
2023/01/23 01:33:14;;;;;;;9.57;7.37;;;;;;;8.94;100.00;41774.69;5075530;28;20661;-64
2023/01/23 01:35:42;;;;;;;7.43;6.93;;;;;;;8.95;100.00;43389.78;5074976;28;20228;-64
2023/01/23 01:38:09;;;;;;;7.03;6.63;;;;;;;8.98;100.00;42100.38;5075104;28;20185;-64
2023/01/23 01:40:37;;;;;;;7.93;7.13;;;;;;;8.96;100.00;40485.84;5075296;28;20544;-64
2023/01/23 01:43:07;;;;;;;8.37;7.60;;;;;;;8.88;100.00;38544.97;5075345;28;20192;-64
2023/01/23 01:46:12;;;;;;;8.87;8.17;;;;;;;8.97;100.00;36295.25;5075511;28;20209;-64
2023/01/23 01:48:44;;;;;;;11.60;7.97;;;;;;;8.95;100.00;32751.38;5077026;28;20556;-65
2023/01/23 01:51:19;;;;;;;12.97;8.73;;;;;;;9.00;100.00;32432.44;5078116;28;20180;-64
2023/01/23 01:53:49;;;;;;;13.87;7.33;;;;;;;8.88;100.00;33069.09;5077836;28;20215;-64
2023/01/23 01:56:18;;;;;;;8.87;8.17;;;;;;;8.99;100.00;33075.94;5078445;28;20195;-63
2023/01/23 01:58:49;;;;;;;7.17;6.53;;;;;;;8.74;100.00;28559.25;5076986;28;20235;-64
2023/01/23 02:01:16;;;;;;;9.53;7.77;;;;;;;8.59;100.00;27266.91;5076945;28;20216;-64
2023/01/23 02:03:45;;;;;;;8.53;7.50;;;;;;;8.76;100.00;29202.78;5077214;28;20188;-64
2023/01/23 02:06:13;;;;;;;10.77;7.03;;;;;;;8.60;100.00;33053.06;5076836;28;20713;-65
2023/01/23 02:08:48;;;;;;;8.43;7.67;;;;;;;8.66;100.00;33056.63;5076674;28;20636;-64
2023/01/23 02:11:17;;;;;;;8.07;7.17;;;;;;;8.72;100.00;32416.41;5075487;28;20229;-64
2023/01/23 02:13:45;;;;;;;8.13;7.10;;;;;;;8.74;100.00;33382.56;5075180;28;20197;-65
2023/01/23 02:16:15;;;;;;;9.13;7.43;;;;;;;8.57;100.00;30478.75;5074855;28;20211;-63
2023/01/23 02:18:46;;;;;;;12.17;7.60;;;;;;;8.63;100.00;30160.34;5074478;28;20193;-63
2023/01/23 02:21:19;;;;;;;7.40;6.77;;;;;;;8.80;100.00;32421.06;5074555;28;20185;-65
2023/01/23 02:24:12;;;;;;;8.23;7.27;;;;;;;8.83;100.00;32744.31;5074285;28;20185;-64
2023/01/23 02:26:42;;;;;;;8.77;7.70;;;;;;;8.66;100.00;33378.38;5073092;28;20200;-64
2023/01/23 02:29:10;;;;;;;8.07;7.23;;;;;;;8.79;100.00;35961.50;5074421;28;20185;-64
2023/01/23 02:31:37;;;;;;;8.83;8.03;;;;;;;8.78;100.00;30811.34;5074230;28;20654;-64
2023/01/23 02:34:05;;;;;;;8.10;7.40;;;;;;;8.76;100.00;26632.72;5074099;28;20197;-63
2023/01/23 02:36:34;;;;;;;10.53;7.87;;;;;;;8.47;100.00;22448.00;5073761;28;20188;-64
2023/01/23 02:39:07;;;;;;;12.17;8.30;;;;;;;8.61;100.00;17327.03;5073812;28;20184;-63
2023/01/23 02:41:36;;;;;;;11.43;8.47;;;;;;;8.51;100.00;17003.41;5073914;28;20555;-63
2023/01/23 02:44:09;;;;;;;13.63;8.30;;;;;;;8.56;100.00;17325.38;5073629;28;20189;-63
2023/01/23 02:46:36;;;;;;;13.97;8.57;;;;;;;8.44;100.00;17961.44;5073554;28;20220;-64
2023/01/23 02:49:03;;;;;;;12.80;9.37;;;;;;;8.30;100.00;16036.78;5073842;28;20189;-63
2023/01/23 02:51:32;;;;;;;10.63;8.63;;;;;;;8.23;100.00;14115.91;5073523;28;20188;-64
2023/01/23 02:53:59;;;;;;;13.10;9.33;;;;;;;8.46;100.00;13482.88;5073499;28;20188;-66
2023/01/23 02:56:26;;;;;;;15.83;9.17;;;;;;;8.42;100.00;14441.09;5073435;28;20181;-63
2023/01/23 03:01:38;;;;;;;10.97;8.57;;;;;;;8.20;100.00;15713.78;5073405;28;20555;-64
2023/01/23 03:04:06;;;;;;;9.43;8.57;;;;;;;8.02;100.00;15388.53;5073118;28;20188;-63
2023/01/23 03:06:36;;;;;;;9.87;7.47;;;;;;;7.93;100.00;15705.47;5072998;28;20208;-63
2023/01/23 03:09:09;;;;;;;13.37;9.40;;;;;;;8.04;100.00;14749.78;5073154;28;20195;-64
2023/01/23 03:11:39;;;;;;;10.73;8.87;;;;;;;7.95;100.00;15706.09;5073169;28;20275;-64
2023/01/23 03:14:08;;;;;;;10.17;9.03;;;;;;;8.05;100.00;16668.72;5073420;28;20177;-64
2023/01/23 03:16:35;;;;;;;10.30;8.97;;;;;;;8.01;100.00;16347.59;5073327;28;20185;-63
2023/01/23 03:19:07;;;;;;;12.63;9.40;;;;;;;8.00;100.00;16666.91;5073218;28;20211;-64
2023/01/23 03:21:36;;;;;;;12.43;8.93;;;;;;;7.94;100.00;17624.44;5073081;28;20516;-64
2023/01/23 03:24:04;;;;;;;13.03;8.47;;;;;;;7.74;100.00;17618.00;5072800;28;20185;-64
2023/01/23 03:26:31;;;;;;;9.93;9.03;;;;;;;7.72;100.00;15060.22;5072613;28;20273;-64
2023/01/23 03:31:42;;;;;;;10.33;9.30;;;;;;;7.75;100.00;15380.50;5072698;28;20238;-63
2023/01/23 03:34:11;;;;;;;12.27;9.53;;;;;;;7.80;100.00;16021.41;5072942;28;20219;-63
2023/01/23 03:36:37;;;;;;;8.77;7.60;;;;;;;7.66;100.00;19214.31;5072619;28;20192;-63
2023/01/23 03:41:49;;;;;;;9.00;7.67;;;;;;;7.81;100.00;21780.50;5072748;28;20180;-63
2023/01/23 03:44:19;;;;;;;9.50;7.80;;;;;;;7.67;100.00;24977.47;5072447;28;20218;-64
2023/01/23 03:46:46;;;;;;;10.10;8.03;;;;;;;7.66;100.00;24977.22;5072537;28;20209;-64
2023/01/23 03:49:15;;;;;;;14.10;8.87;;;;;;;7.68;100.00;25939.63;5072822;28;20703;-63
2023/01/23 03:51:42;;;;;;;11.33;8.40;;;;;;;7.79;100.00;28189.84;5072588;28;20189;-64
2023/01/23 03:54:09;;;;;;;10.73;7.07;;;;;;;7.68;100.00;32999.03;5072592;28;20537;-63
2023/01/23 03:56:36;;;;;;;11.57;7.13;;;;;;;7.51;100.00;33310.09;5072277;28;20189;-64
2023/01/23 03:59:03;;;;;;;11.80;7.97;;;;;;;7.60;100.00;33957.97;5072102;28;20196;-63
2023/01/23 04:01:30;;;;;;;12.27;9.00;;;;;;;7.74;100.00;34608.94;5072099;28;20201;-64
2023/01/23 04:03:57;;;;;;;8.97;8.07;;;;;;;7.79;100.00;36862.81;5072406;28;20184;-64
2023/01/23 04:06:28;;;;;;;13.87;8.17;;;;;;;7.63;100.00;35245.19;5071828;28;20213;-64
2023/01/23 04:08:57;;;;;;;15.00;8.20;;;;;;;7.48;100.00;32666.06;5071898;28;20196;-63
2023/01/23 04:11:25;;;;;;;9.07;8.20;;;;;;;7.48;100.00;30740.13;5072201;28;20279;-64
2023/01/23 04:13:52;;;;;;;8.23;6.80;;;;;;;7.48;100.00;27532.66;5072387;28;20216;-64
2023/01/23 04:16:20;;;;;;;7.60;7.00;;;;;;;7.47;100.00;23687.16;5071917;28;20181;-63
2023/01/23 04:18:47;;;;;;;18.97;9.53;;;;;;;7.44;100.00;20165.72;5072013;28;20196;-64
2023/01/23 04:21:14;;;;;;;19.30;9.07;;;;;;;7.47;100.00;21126.63;5072090;28;20627;-65
2023/01/23 04:23:42;;;;;;;13.57;9.13;;;;;;;7.35;100.00;23682.09;5072029;28;20246;-64
2023/01/23 04:26:09;;;;;;;11.70;8.10;;;;;;;7.42;100.00;25606.84;5071540;28;20223;-63
2023/01/23 04:28:36;;;;;;;14.47;8.10;;;;;;;7.44;100.00;25287.44;5071619;28;20208;-65
2023/01/23 04:31:03;;;;;;;13.67;8.43;;;;;;;7.41;100.00;25926.78;5071851;28;20203;-64
2023/01/23 04:33:30;;;;;;;12.70;6.43;;;;;;;7.37;100.00;28168.00;5071827;28;20616;-63
2023/01/23 04:35:59;;;;;;;27.13;9.03;;;;;;;7.46;100.00;26890.56;5071773;28;20251;-64
2023/01/23 04:38:28;;;;;;;11.27;8.90;;;;;;;7.50;100.00;27213.09;5071571;28;20213;-64
2023/01/23 04:40:56;;;;;;;11.73;9.70;;;;;;;7.61;100.00;27859.88;5071481;28;20185;-64
2023/01/23 04:43:24;;;;;;;13.27;8.40;;;;;;;7.54;100.00;29780.81;5071602;28;20580;-64
2023/01/23 04:45:52;;;;;;;14.83;7.43;;;;;;;7.31;100.00;27203.63;5071796;28;20191;-64
2023/01/23 04:48:19;;;;;;;11.83;9.10;;;;;;;7.34;100.00;23361.72;5070952;28;20192;-64
2023/01/23 04:50:46;;;;;;;16.70;8.30;;;;;;;7.26;100.00;23358.03;5071341;28;20321;-64
2023/01/23 04:53:13;;;;;;;18.37;8.87;;;;;;;7.22;100.00;20796.88;5071348;28;20193;-63
2023/01/23 04:55:40;;;;;;;14.97;8.63;;;;;;;7.17;100.00;20794.91;5071564;28;20196;-64
2023/01/23 04:58:10;;;;;;;12.53;9.07;;;;;;;7.37;100.00;20163.03;5071394;28;20187;-64
2023/01/23 05:00:37;;;;;;;15.47;9.30;;;;;;;7.46;100.00;20806.28;5071236;28;20181;-63
2023/01/23 05:03:04;;;;;;;22.63;9.77;;;;;;;7.53;100.00;23049.56;5071597;28;20184;-63
2023/01/23 05:05:32;;;;;;;21.27;10.17;;;;;;;7.47;100.00;24007.59;5071013;28;20265;-63
2023/01/23 05:07:59;;;;;;;18.70;9.40;;;;;;;7.43;100.00;23365.41;5071176;28;20209;-63
2023/01/23 05:10:28;;;;;;;15.13;8.67;;;;;;;7.34;100.00;22081.31;5071485;28;20555;-64
2023/01/23 05:12:58;;;;;;;26.37;9.90;;;;;;;7.13;100.00;19194.94;5053942;28;20188;-63
2023/01/23 05:15:26;;;;;;;18.40;8.80;;;;;;;7.09;100.00;15360.66;5053569;28;20188;-64
2023/01/23 05:17:53;;;;;;;14.83;9.70;;;;;;;7.14;100.00;14404.59;5071418;28;20192;-64
2023/01/23 05:20:22;;;;;;;19.27;10.23;;;;;;;7.08;100.00;16318.13;5071066;28;20196;-64
2023/01/23 05:22:52;;;;;;;12.13;9.70;;;;;;;7.13;100.00;18875.50;5070918;28;20185;-64
2023/01/23 05:25:20;;;;;;;15.47;9.40;;;;;;;7.06;100.00;20470.88;5071347;28;20705;-63
2023/01/23 05:27:47;;;;;;;11.90;8.67;;;;;;;7.34;100.00;22401.50;5070858;28;20208;-64
2023/01/23 05:30:14;;;;;;;9.97;8.77;;;;;;;7.25;100.00;29124.09;5070888;28;20192;-63
2023/01/23 05:32:43;;;;;;;11.50;8.87;;;;;;;7.26;100.00;31369.53;5070958;28;20195;-64
2023/01/23 05:35:10;;;;;;;10.40;8.70;;;;;;;7.34;100.00;31374.06;5070766;28;20610;-64
2023/01/23 05:37:37;;;;;;;14.90;9.53;;;;;;;7.35;100.00;31053.75;5070880;28;20184;-63
2023/01/23 05:40:07;;;;;;;11.10;8.80;;;;;;;7.38;100.00;31696.97;5070898;28;20199;-64
2023/01/23 05:42:34;;;;;;;19.33;9.10;;;;;;;7.38;100.00;30413.47;5070801;28;20229;-63
2023/01/23 05:45:02;;;;;;;18.77;8.47;;;;;;;7.22;100.00;29122.50;5070743;28;20177;-64
2023/01/23 05:47:29;;;;;;;14.07;9.17;;;;;;;7.27;100.00;26881.47;5052596;28;20296;-64
2023/01/23 05:49:57;;;;;;;16.30;7.07;;;;;;;7.06;100.00;26230.31;5070600;28;20196;-62
2023/01/23 05:52:24;;;;;;;16.83;8.93;;;;;;;7.01;100.00;22067.66;5070945;28;20192;-63
2023/01/23 05:54:50;;;;;;;12.40;9.07;;;;;;;6.86;100.00;21422.47;5071086;28;20208;-64
2023/01/23 05:57:18;;;;;;;11.97;8.70;;;;;;;6.98;100.00;24306.03;5070702;28;20193;-64
2023/01/23 05:59:45;;;;;;;10.47;8.23;;;;;;;6.67;100.00;25892.00;5071515;28;20283;-64
2023/01/23 06:02:12;;;;;;;15.30;8.20;;;;;;;6.95;100.00;27506.03;5074506;28;20184;-64
2023/01/23 06:04:39;;;;;;;14.67;8.50;;;;;;;6.99;100.00;29751.13;5074535;28;20189;-64
2023/01/23 06:07:09;;;;;;;10.63;8.33;;;;;;;7.02;100.00;32318.22;5074567;28;20678;-64
2023/01/23 06:09:36;;;;;;;12.87;9.20;;;;;;;7.18;100.00;37465.78;5074473;28;20212;-63
2023/01/23 06:12:03;;;;;;;14.13;7.97;;;;;;;7.28;100.00;40044.97;5074261;28;20185;-64
2023/01/23 06:14:29;;;;;;;8.13;7.10;;;;;;;7.27;100.00;46161.75;5074531;28;20188;-64
2023/01/23 06:16:56;;;;;;;8.67;6.83;;;;;;;7.07;100.00;48401.84;5074361;28;20189;-64
2023/01/23 06:19:23;;;;;;;13.97;7.70;;;;;;;7.03;100.00;45176.03;5074056;28;20188;-63
2023/01/23 06:21:52;;;;;;;13.73;6.90;;;;;;;7.04;100.00;44210.81;5074114;28;20184;-62
2023/01/23 06:24:20;;;;;;;11.87;8.13;;;;;;;7.04;100.00;44854.78;5074052;28;20262;-64
2023/01/23 06:26:48;;;;;;;14.27;7.77;;;;;;;6.99;100.00;46139.06;5074170;28;20633;-65
2023/01/23 06:29:15;;;;;;;12.93;8.63;;;;;;;7.11;100.00;46793.63;5074179;28;20176;-64
2023/01/23 06:31:42;;;;;;;14.07;8.90;;;;;;;7.05;100.00;46788.28;5074168;28;20207;-65
2023/01/23 06:34:09;;;;;;;9.03;7.30;;;;;;;7.08;100.00;50982.75;5073886;28;20569;-65
2023/01/23 06:36:36;;;;;;;7.90;7.20;;;;;;;7.16;100.00;54863.69;5056623;28;20554;-64
2023/01/23 06:39:03;;;;;;;10.63;8.43;;;;;;;7.19;100.00;57128.69;5074718;28;20659;-64
2023/01/23 06:41:31;;;;;;;11.43;7.37;;;;;;;7.26;100.00;66525.13;5073929;28;20191;-63
2023/01/23 06:43:58;;;;;;;14.93;6.50;;;;;;;7.05;100.00;69742.84;5073936;28;20594;-64
2023/01/23 06:46:25;;;;;;;12.97;8.13;;;;;;;7.31;100.00;65557.75;5073531;28;20185;-63
2023/01/23 06:48:52;;;;;;;14.77;7.90;;;;;;;7.29;100.00;68149.50;5073668;28;20209;-65
2023/01/23 06:51:19;;;;;;;14.90;8.00;;;;;;;7.33;100.00;61672.47;5073748;28;20189;-63
2023/01/23 06:53:47;;;;;;;12.00;7.40;;;;;;;7.28;100.00;63610.75;5073725;28;20268;-62
2023/01/23 06:56:14;;;;;;;12.00;7.90;;;;;;;7.26;100.00;62313.06;5073868;28;20583;-63
2023/01/23 06:58:44;;;;;;;11.50;7.40;;;;;;;7.44;100.00;69465.19;5073457;28;20196;-63
2023/01/23 07:01:12;;;;;;;8.97;8.00;;;;;;;7.38;100.00;73354.13;5073241;28;20195;-63
2023/01/23 07:03:39;;;;;;;13.00;7.60;;;;;;;7.44;100.00;75962.91;5073308;28;20294;-64
2023/01/23 07:06:06;;;;;;;16.47;8.23;;;;;;;7.12;100.00;71699.06;5073943;28;20619;-63
2023/01/23 07:08:33;;;;;;;13.67;7.10;;;;;;;7.27;100.00;70418.41;5073356;28;20216;-63
2023/01/23 07:11:00;;;;;;;9.20;7.17;;;;;;;7.20;100.00;64897.75;5073069;28;20184;-63
2023/01/23 07:13:27;;;;;;;13.83;8.57;;;;;;;7.01;100.00;53558.22;5073082;28;20576;-63
2023/01/23 07:15:57;;;;;;;10.87;7.13;;;;;;;7.03;100.00;55497.28;5073237;28;20189;-64
2023/01/23 07:18:27;;;;;;;8.93;8.13;;;;;;;7.12;100.00;68130.06;5072981;28;20614;-64
2023/01/23 07:20:54;;;;;;;10.77;7.63;;;;;;;7.13;100.00;74947.47;5073367;28;20713;-64
2023/01/23 07:23:21;;;;;;;14.90;6.50;;;;;;;7.27;100.00;93541.03;5073453;28;20188;-64
2023/01/23 07:25:48;;;;;;;17.83;7.27;;;;;;;7.27;100.00;98773.22;5073137;28;20191;-63
2023/01/23 07:28:15;;;;;;;7.40;6.20;;;;;;;7.28;100.00;92562.47;5066485;28;20217;-63
2023/01/23 07:30:45;;;;;;;7.67;7.07;;;;;;;7.10;100.00;72994.63;5056551;28;20209;-64
2023/01/23 07:33:16;;;;;;;15.77;7.97;;;;;;;7.11;100.00;62944.41;5052477;28;20209;-63
2023/01/23 07:35:43;;;;;;;13.23;8.00;;;;;;;7.17;100.00;52926.94;5052504;28;20247;-63
2023/01/23 07:38:10;;;;;;;9.73;8.20;;;;;;;7.31;100.00;50680.50;5052776;28;20185;-63
2023/01/23 07:40:37;;;;;;;15.40;8.93;;;;;;;7.35;100.00;51974.81;5034916;28;20197;-63
2023/01/23 07:43:05;;;;;;;9.43;8.70;;;;;;;7.38;100.00;53915.38;5051478;28;20630;-63
2023/01/23 07:45:40;;;;;;;12.57;7.87;;;;;;;7.11;100.00;51953.50;5053277;28;20565;-64
2023/01/23 07:48:07;;;;;;;12.03;8.10;;;;;;;7.12;100.00;52599.50;5065163;28;20243;-63
2023/01/23 07:50:36;;;;;;;10.67;8.00;;;;;;;7.16;100.00;52603.16;5072979;28;20189;-64
2023/01/23 07:53:03;;;;;;;8.67;7.93;;;;;;;7.15;100.00;55185.78;5072382;28;20188;-63
2023/01/23 07:55:30;;;;;;;11.17;8.37;;;;;;;7.24;100.00;61339.16;5072045;28;20200;-63
2023/01/23 07:57:58;;;;;;;11.60;7.97;;;;;;;7.33;100.00;61348.72;5071978;28;20181;-63
2023/01/23 08:00:25;;;;;;;13.73;8.57;;;;;;;7.39;100.00;64594.41;5065750;28;20224;-63
2023/01/23 08:02:52;;;;;;;10.40;7.37;;;;;;;7.58;100.00;69806.03;5054258;28;20185;-64
2023/01/23 08:05:21;;;;;;;12.63;7.07;;;;;;;7.37;100.00;81485.84;5071585;28;20207;-62
2023/01/23 08:07:49;;;;;;;9.10;8.20;;;;;;;7.42;100.00;88339.47;5072626;28;20686;-63
2023/01/23 08:10:17;;;;;;;7.93;6.47;;;;;;;7.26;100.00;88967.81;5071826;28;20193;-63
2023/01/23 08:12:44;;;;;;;14.27;7.97;;;;;;;7.30;100.00;74969.38;5072465;28;20204;-63
2023/01/23 08:15:11;;;;;;;9.67;8.67;;;;;;;7.31;100.00;76596.88;5072140;28;20265;-63
2023/01/23 08:17:38;;;;;;;8.97;6.83;;;;;;;7.04;100.00;68444.34;5072004;28;20221;-63
2023/01/23 08:20:06;;;;;;;13.20;7.97;;;;;;;7.10;100.00;59383.06;5071759;28;20180;-63
2023/01/23 08:22:33;;;;;;;8.33;7.53;;;;;;;7.15;100.00;60035.22;5071843;28;20189;-64
2023/01/23 08:25:01;;;;;;;8.37;6.87;;;;;;;7.03;100.00;59053.00;5071616;28;20276;-63
2023/01/23 08:27:28;;;;;;;18.00;9.77;;;;;;;7.13;100.00;54214.84;5067650;28;20220;-64
2023/01/23 08:29:55;;;;;;;14.67;9.53;;;;;;;7.22;100.00;54223.34;5068916;28;20207;-64
2023/01/23 08:32:22;;;;;;;7.23;6.43;;;;;;;7.25;100.00;58752.06;5070497;28;20205;-63
2023/01/23 08:34:49;;;;;;;12.83;8.50;;;;;;;7.27;100.00;63609.09;5059932;28;20321;-64
2023/01/23 08:37:16;;;;;;;16.80;9.43;;;;;;;6.88;100.00;62596.22;5051891;28;20568;-63
2023/01/23 08:39:43;;;;;;;11.83;8.33;;;;;;;7.04;100.00;64555.34;5055705;28;20580;-63
2023/01/23 08:42:11;;;;;;;12.10;8.33;;;;;;;7.21;100.00;65870.53;5055703;28;20211;-63
2023/01/23 08:44:38;;;;;;;9.97;7.50;;;;;;;7.21;100.00;71709.56;5051584;28;20189;-63
2023/01/23 08:47:05;;;;;;;11.73;8.30;;;;;;;7.12;100.00;69426.84;5071877;28;20524;-63
2023/01/23 08:49:32;;;;;;;13.47;8.43;;;;;;;7.18;100.00;73005.31;5069791;28;20683;-62
2023/01/23 08:52:04;;;;;;;9.10;8.30;;;;;;;7.07;100.00;77865.72;5066248;28;20201;-63
2023/01/23 08:54:30;;;;;;;12.77;7.00;;;;;;;7.00;100.00;73306.75;5053291;28;20197;-63
2023/01/23 08:56:57;;;;;;;16.73;8.03;;;;;;;7.14;100.00;70078.75;5051039;28;20192;-63
2023/01/23 08:59:26;;;;;;;12.40;7.30;;;;;;;7.11;100.00;76895.63;5035821;28;20203;-64
2023/01/23 09:01:52;;;;;;;8.90;7.03;;;;;;;7.04;100.00;75585.69;5062688;28;20663;-63
2023/01/23 09:04:19;;;;;;;11.90;7.47;;;;;;;6.85;100.00;71666.28;5071599;28;20191;-63
2023/01/23 09:06:46;;;;;;;14.10;7.73;;;;;;;6.98;100.00;72330.28;5070451;28;20184;-63
2023/01/23 09:09:13;;;;;;;10.60;6.43;;;;;;;6.92;100.00;69402.91;5070900;28;20572;-63
2023/01/23 09:11:40;;;;;;;9.40;8.30;;;;;;;6.82;100.00;64855.69;5069049;28;20185;-63
2023/01/23 09:14:07;;;;;;;14.13;8.33;;;;;;;7.00;100.00;66495.25;5070571;28;20188;-63
2023/01/23 09:16:35;;;;;;;12.03;7.43;;;;;;;6.93;100.00;66487.19;5070895;28;20191;-63
2023/01/23 09:19:02;;;;;;;8.27;7.43;;;;;;;6.92;100.00;64866.31;5070344;28;20192;-62
2023/01/23 09:21:29;;;;;;;12.40;7.83;;;;;;;6.75;100.00;60641.28;5071056;28;20618;-63
2023/01/23 09:24:00;;;;;;;8.27;7.47;;;;;;;6.90;100.00;56777.28;5071663;28;20191;-64
2023/01/23 09:26:27;;;;;;;10.43;7.87;;;;;;;6.77;100.00;59350.09;5071539;28;20299;-63
2023/01/23 09:28:54;;;;;;;14.50;8.47;;;;;;;6.83;100.00;57417.03;5064746;28;20213;-64
2023/01/23 09:31:21;;;;;;;11.07;8.23;;;;;;;6.87;100.00;61300.88;5051436;28;20264;-63
2023/01/23 09:33:50;;;;;;;11.13;8.17;;;;;;;6.99;100.00;67141.69;5068391;28;20644;-64
2023/01/23 09:36:17;;;;;;;18.47;8.43;;;;;;;7.02;100.00;69739.22;5073213;28;20255;-62
2023/01/23 09:38:44;;;;;;;8.27;7.27;;;;;;;6.91;100.00;84678.03;5074136;28;20177;-62
2023/01/23 09:41:17;;;;;;;8.73;7.70;;;;;;;6.95;100.00;80125.53;5074790;28;20208;-62
2023/01/23 09:43:51;;;;;;;11.97;7.50;;;;;;;7.15;100.00;87972.41;5074559;28;20185;-62
2023/01/23 09:46:23;;;;;;;8.27;7.47;;;;;;;7.17;100.00;93525.03;5070242;28;20196;-62
2023/01/23 09:48:58;;;;;;;11.07;6.90;;;;;;;7.21;100.00;103019.59;5071241;28;20315;-63
2023/01/23 09:51:29;;;;;;;9.23;7.73;;;;;;;7.28;100.00;111890.06;5074467;28;20192;-62
2023/01/23 09:54:01;;;;;;;11.87;7.63;;;;;;;7.31;100.00;109926.22;5074680;28;20196;-65
2023/01/23 09:56:31;;;;;;;12.67;7.50;;;;;;;7.32;100.00;117158.94;5074629;28;20640;-63
2023/01/23 09:59:12;;;;;;;12.73;7.97;;;;;;;7.22;100.00;116152.19;5075347;28;20196;-61
2023/01/23 10:01:40;;;;;;;9.07;7.83;;;;;;;6.87;100.00;112798.59;5074773;28;20653;-63
2023/01/23 10:04:12;;;;;;;12.00;7.33;;;;;;;6.85;100.00;101647.63;5071200;28;20197;-61
2023/01/23 10:07:05;;;;;;;11.47;8.37;;;;;;;6.59;100.00;94413.09;5073762;28;20189;-61
2023/01/23 10:09:46;;;;;;;6.77;5.60;;;;;;;6.66;100.00;84316.81;5075277;28;20570;-64
2023/01/23 10:12:25;;;;;;;12.20;8.17;;;;;;;6.64;100.00;74235.59;5058114;28;20181;-65
2023/01/23 10:15:07;;;;;;;12.80;6.67;;;;;;;6.40;100.00;70638.16;5069427;28;20617;-65
2023/01/23 10:17:41;;;;;;;11.80;7.87;;;;;;;6.48;100.00;66112.31;5074218;28;20256;-65
2023/01/23 10:20:29;;;;;;;12.30;8.57;;;;;;;6.59;100.00;64506.19;5074878;28;20188;-65
2023/01/23 10:23:08;;;;;;;10.67;8.23;;;;;;;6.54;100.00;61265.81;5066403;28;20257;-64
2023/01/23 10:25:39;;;;;;;16.53;9.63;;;;;;;6.62;100.00;57718.59;5071713;28;20267;-65
2023/01/23 10:28:19;;;;;;;10.87;7.90;;;;;;;6.44;100.00;52215.59;5073853;28;20244;-65
2023/01/23 10:30:49;;;;;;;14.93;10.03;;;;;;;6.59;100.00;45785.16;5070367;28;20720;-63
2023/01/23 10:33:18;;;;;;;16.93;9.30;;;;;;;6.58;100.00;50938.66;5072987;28;20223;-64
2023/01/23 10:35:49;;;;;;;12.23;8.43;;;;;;;6.62;100.00;57719.09;5072971;28;20267;-63
2023/01/23 10:38:26;;;;;;;14.17;8.97;;;;;;;6.50;100.00;58029.53;5069716;28;20229;-64
2023/01/23 10:43:37;;;;;;;12.47;8.93;;;;;;;6.40;100.00;48667.50;5073405;28;20276;-65
2023/01/23 10:46:11;;;;;;;10.10;8.77;;;;;;;6.45;100.00;51571.72;5073532;28;20559;-65
2023/01/23 10:48:42;;;;;;;9.97;8.40;;;;;;;6.45;100.00;53828.50;5073628;28;20633;-65
2023/01/23 10:51:33;;;;;;;13.57;9.90;;;;;;;6.39;100.00;53823.34;5069689;28;20215;-64
2023/01/23 10:54:02;;;;;;;11.80;8.80;;;;;;;6.36;100.00;57047.31;5072890;28;20280;-64
2023/01/23 10:56:30;;;;;;;12.40;9.47;;;;;;;6.28;100.00;57685.00;5069052;28;20199;-64
2023/01/23 10:58:59;;;;;;;10.77;8.80;;;;;;;6.36;100.00;72578.53;5073310;28;20647;-65
2023/01/23 11:01:29;;;;;;;10.30;8.20;;;;;;;6.28;100.00;79385.47;5069033;28;20215;-63
2023/01/23 11:03:56;;;;;;;11.23;8.07;;;;;;;6.46;100.00;75835.50;5060631;28;20575;-64
2023/01/23 11:06:25;;;;;;;13.63;8.40;;;;;;;6.46;100.00;77784.72;5062272;28;20243;-66
2023/01/23 11:08:59;;;;;;;9.60;8.67;;;;;;;6.48;100.00;74539.69;5065273;28;20696;-64
2023/01/23 11:11:28;;;;;;;9.03;8.23;;;;;;;6.50;100.00;81365.53;5068470;28;20203;-65
2023/01/23 11:14:07;;;;;;;10.97;8.53;;;;;;;6.58;100.00;80401.09;5073483;28;20189;-64
2023/01/23 11:16:35;;;;;;;15.73;10.10;;;;;;;6.66;100.00;79436.66;5073359;28;20289;-60
2023/01/23 11:19:16;;;;;;;11.93;9.57;;;;;;;6.41;100.00;77453.22;5072607;28;20196;-61
2023/01/23 11:21:53;;;;;;;16.67;9.70;;;;;;;6.19;100.00;69317.28;5071416;28;20192;-61
2023/01/23 11:24:27;;;;;;;16.60;10.50;;;;;;;6.29;100.00;60592.91;5072041;28;20273;-61
2023/01/23 11:26:59;;;;;;;25.47;10.93;;;;;;;6.38;100.00;53500.34;5072523;28;20193;-61
2023/01/23 11:29:29;;;;;;;20.00;10.67;;;;;;;6.48;100.00;55767.88;5072425;28;20212;-60
2023/01/23 11:32:00;;;;;;;15.87;11.80;;;;;;;6.50;100.00;60614.47;5072743;28;20196;-62
2023/01/23 11:34:34;;;;;;;22.33;11.50;;;;;;;6.49;100.00;56413.97;5072486;28;20330;-61
2023/01/23 11:37:10;;;;;;;19.80;9.67;;;;;;;6.30;100.00;67062.84;5072938;28;20193;-61
2023/01/23 11:39:48;;;;;;;16.47;9.03;;;;;;;6.24;100.00;61557.09;5072745;28;20180;-60
2023/01/23 11:42:16;;;;;;;14.13;10.67;;;;;;;6.43;100.00;59961.31;5072170;28;20185;-61
2023/01/23 11:44:43;;;;;;;14.93;10.73;;;;;;;6.06;100.00;60569.28;5071891;28;20196;-61
2023/01/23 11:47:27;;;;;;;17.83;11.10;;;;;;;6.43;100.00;59961.31;5070272;28;20220;-62